sensor_id;sensor_type;location;lat;lon;timestamp;temperature;humidity
41882;DHT22;27562;47.524;12.404;2023-03-25T00:02:06;6.90;99.90
41882;DHT22;27562;47.524;12.404;2023-03-25T00:04:33;6.90;99.90
41882;DHT22;27562;47.524;12.404;2023-03-25T00:06:59;6.90;99.90
41882;DHT22;27562;47.524;12.404;2023-03-25T00:09:25;7.00;99.90
41882;DHT22;27562;47.524;12.404;2023-03-25T00:11:51;7.00;99.90
41882;DHT22;27562;47.524;12.404;2023-03-25T00:14:17;7.00;99.90
41882;DHT22;27562;47.524;12.404;2023-03-25T00:16:43;7.10;99.90
41882;DHT22;27562;47.524;12.404;2023-03-25T00:19:15;7.10;99.90
41882;DHT22;27562;47.524;12.404;2023-03-25T00:21:41;7.10;99.90
41882;DHT22;27562;47.524;12.404;2023-03-25T00:24:10;7.10;99.90
41882;DHT22;27562;47.524;12.404;2023-03-25T00:26:45;7.00;99.90
41882;DHT22;27562;47.524;12.404;2023-03-25T00:29:13;7.00;99.90
41882;DHT22;27562;47.524;12.404;2023-03-25T00:31:39;7.00;99.90
41882;DHT22;27562;47.524;12.404;2023-03-25T00:34:08;6.90;99.90
41882;DHT22;27562;47.524;12.404;2023-03-25T00:36:34;6.90;99.90
41882;DHT22;27562;47.524;12.404;2023-03-25T00:39:03;6.90;99.90
41882;DHT22;27562;47.524;12.404;2023-03-25T00:41:29;6.90;99.90
41882;DHT22;27562;47.524;12.404;2023-03-25T00:43:55;6.90;99.90
41882;DHT22;27562;47.524;12.404;2023-03-25T00:46:21;6.80;99.90
41882;DHT22;27562;47.524;12.404;2023-03-25T00:48:47;6.80;99.90
41882;DHT22;27562;47.524;12.404;2023-03-25T00:51:13;6.80;99.90
41882;DHT22;27562;47.524;12.404;2023-03-25T00:53:44;6.70;99.90
41882;DHT22;27562;47.524;12.404;2023-03-25T00:56:10;6.70;99.90
41882;DHT22;27562;47.524;12.404;2023-03-25T00:58:36;6.70;99.90
41882;DHT22;27562;47.524;12.404;2023-03-25T01:01:09;6.70;99.90
41882;DHT22;27562;47.524;12.404;2023-03-25T01:03:35;6.70;99.90
41882;DHT22;27562;47.524;12.404;2023-03-25T01:06:01;6.70;99.90
41882;DHT22;27562;47.524;12.404;2023-03-25T01:08:27;6.70;99.90
41882;DHT22;27562;47.524;12.404;2023-03-25T01:10:54;6.70;99.90
41882;DHT22;27562;47.524;12.404;2023-03-25T01:13:20;6.60;99.90
41882;DHT22;27562;47.524;12.404;2023-03-25T01:15:46;6.50;99.90
41882;DHT22;27562;47.524;12.404;2023-03-25T01:18:11;6.40;99.90
41882;DHT22;27562;47.524;12.404;2023-03-25T01:20:40;6.40;99.90
41882;DHT22;27562;47.524;12.404;2023-03-25T01:23:06;6.20;99.90
41882;DHT22;27562;47.524;12.404;2023-03-25T01:25:34;6.10;99.90
41882;DHT22;27562;47.524;12.404;2023-03-25T01:28:01;6.10;99.90
41882;DHT22;27562;47.524;12.404;2023-03-25T01:30:26;6.10;99.90
41882;DHT22;27562;47.524;12.404;2023-03-25T01:32:52;6.10;99.90
41882;DHT22;27562;47.524;12.404;2023-03-25T01:35:17;6.10;99.90
41882;DHT22;27562;47.524;12.404;2023-03-25T01:37:43;6.00;99.90
41882;DHT22;27562;47.524;12.404;2023-03-25T01:40:16;5.90;99.90
41882;DHT22;27562;47.524;12.404;2023-03-25T01:42:42;5.80;99.90
41882;DHT22;27562;47.524;12.404;2023-03-25T01:45:41;5.80;99.90
41882;DHT22;27562;47.524;12.404;2023-03-25T01:48:04;5.80;99.90
41882;DHT22;27562;47.524;12.404;2023-03-25T01:50:31;5.70;99.90
41882;DHT22;27562;47.524;12.404;2023-03-25T01:52:57;5.60;99.90
41882;DHT22;27562;47.524;12.404;2023-03-25T01:55:24;5.60;99.90
41882;DHT22;27562;47.524;12.404;2023-03-25T01:57:52;5.50;99.90
41882;DHT22;27562;47.524;12.404;2023-03-25T02:00:19;5.40;99.90
41882;DHT22;27562;47.524;12.404;2023-03-25T02:02:45;5.40;99.90
41882;DHT22;27562;47.524;12.404;2023-03-25T02:07:42;5.30;99.90
41882;DHT22;27562;47.524;12.404;2023-03-25T02:10:11;5.20;99.90
41882;DHT22;27562;47.524;12.404;2023-03-25T02:12:36;5.20;99.90
41882;DHT22;27562;47.524;12.404;2023-03-25T02:15:03;5.20;99.90
41882;DHT22;27562;47.524;12.404;2023-03-25T02:19:58;5.20;99.90
41882;DHT22;27562;47.524;12.404;2023-03-25T02:25:08;5.30;99.90
41882;DHT22;27562;47.524;12.404;2023-03-25T02:27:56;5.30;99.90
41882;DHT22;27562;47.524;12.404;2023-03-25T02:40:27;5.40;99.90
41882;DHT22;27562;47.524;12.404;2023-03-25T02:42:59;5.40;99.90
41882;DHT22;27562;47.524;12.404;2023-03-25T02:45:30;5.30;99.90
41882;DHT22;27562;47.524;12.404;2023-03-25T02:47:57;5.40;99.90
41882;DHT22;27562;47.524;12.404;2023-03-25T02:50:26;5.40;99.90
41882;DHT22;27562;47.524;12.404;2023-03-25T02:52:54;5.40;99.90
41882;DHT22;27562;47.524;12.404;2023-03-25T02:55:21;5.40;99.90
41882;DHT22;27562;47.524;12.404;2023-03-25T02:57:48;5.40;99.90
41882;DHT22;27562;47.524;12.404;2023-03-25T03:00:18;5.40;99.90
41882;DHT22;27562;47.524;12.404;2023-03-25T03:02:52;5.50;99.90
41882;DHT22;27562;47.524;12.404;2023-03-25T03:05:27;5.50;99.90
41882;DHT22;27562;47.524;12.404;2023-03-25T03:08:00;5.40;99.90
41882;DHT22;27562;47.524;12.404;2023-03-25T03:10:38;5.30;99.90
41882;DHT22;27562;47.524;12.404;2023-03-25T03:13:31;5.30;99.90
41882;DHT22;27562;47.524;12.404;2023-03-25T03:21:07;5.30;99.90
41882;DHT22;27562;47.524;12.404;2023-03-25T03:23:39;5.30;99.90
41882;DHT22;27562;47.524;12.404;2023-03-25T03:26:19;5.30;99.90
41882;DHT22;27562;47.524;12.404;2023-03-25T03:31:27;5.30;99.90
41882;DHT22;27562;47.524;12.404;2023-03-25T03:33:58;5.30;99.90
41882;DHT22;27562;47.524;12.404;2023-03-25T03:36:35;5.40;99.90
41882;DHT22;27562;47.524;12.404;2023-03-25T03:39:03;5.40;99.90
41882;DHT22;27562;47.524;12.404;2023-03-25T03:41:32;5.40;99.90
41882;DHT22;27562;47.524;12.404;2023-03-25T03:43:59;5.40;99.90
41882;DHT22;27562;47.524;12.404;2023-03-25T03:46:28;5.40;99.90
41882;DHT22;27562;47.524;12.404;2023-03-25T03:48:56;5.40;99.90
41882;DHT22;27562;47.524;12.404;2023-03-25T03:51:23;5.50;99.90
41882;DHT22;27562;47.524;12.404;2023-03-25T03:54:01;5.50;99.90
41882;DHT22;27562;47.524;12.404;2023-03-25T03:56:48;5.50;99.90
41882;DHT22;27562;47.524;12.404;2023-03-25T04:02:03;5.60;99.90
41882;DHT22;27562;47.524;12.404;2023-03-25T04:04:30;5.60;99.90
41882;DHT22;27562;47.524;12.404;2023-03-25T04:07:14;5.60;99.90
41882;DHT22;27562;47.524;12.404;2023-03-25T04:09:59;5.50;99.90
41882;DHT22;27562;47.524;12.404;2023-03-25T04:12:28;5.50;99.90
41882;DHT22;27562;47.524;12.404;2023-03-25T04:14:54;5.40;99.90
41882;DHT22;27562;47.524;12.404;2023-03-25T04:17:20;5.40;99.90
41882;DHT22;27562;47.524;12.404;2023-03-25T04:19:46;5.40;99.90
41882;DHT22;27562;47.524;12.404;2023-03-25T04:22:14;5.40;99.90
41882;DHT22;27562;47.524;12.404;2023-03-25T04:24:40;5.40;99.90
41882;DHT22;27562;47.524;12.404;2023-03-25T04:27:07;5.40;99.90
41882;DHT22;27562;47.524;12.404;2023-03-25T04:29:33;5.50;99.90
41882;DHT22;27562;47.524;12.404;2023-03-25T04:31:59;5.50;99.90
41882;DHT22;27562;47.524;12.404;2023-03-25T04:34:26;5.50;99.90
41882;DHT22;27562;47.524;12.404;2023-03-25T04:36:52;5.60;99.90
41882;DHT22;27562;47.524;12.404;2023-03-25T04:39:18;5.50;99.90
41882;DHT22;27562;47.524;12.404;2023-03-25T04:41:50;5.60;99.90
41882;DHT22;27562;47.524;12.404;2023-03-25T04:44:15;5.60;99.90
41882;DHT22;27562;47.524;12.404;2023-03-25T04:46:41;5.60;99.90
41882;DHT22;27562;47.524;12.404;2023-03-25T04:49:08;5.60;99.90
41882;DHT22;27562;47.524;12.404;2023-03-25T04:51:38;5.60;99.90
41882;DHT22;27562;47.524;12.404;2023-03-25T04:54:06;5.50;99.90
41882;DHT22;27562;47.524;12.404;2023-03-25T04:56:32;5.50;99.90
41882;DHT22;27562;47.524;12.404;2023-03-25T04:58:57;5.50;99.90
41882;DHT22;27562;47.524;12.404;2023-03-25T05:01:23;5.50;99.90
41882;DHT22;27562;47.524;12.404;2023-03-25T05:03:56;5.40;99.90
41882;DHT22;27562;47.524;12.404;2023-03-25T05:06:22;5.40;99.90
41882;DHT22;27562;47.524;12.404;2023-03-25T05:08:47;5.40;99.90
41882;DHT22;27562;47.524;12.404;2023-03-25T05:11:13;5.40;99.90
41882;DHT22;27562;47.524;12.404;2023-03-25T05:13:39;5.50;99.90
41882;DHT22;27562;47.524;12.404;2023-03-25T05:16:05;5.50;99.90
41882;DHT22;27562;47.524;12.404;2023-03-25T05:18:30;5.50;99.90
41882;DHT22;27562;47.524;12.404;2023-03-25T05:20:56;5.50;99.90
41882;DHT22;27562;47.524;12.404;2023-03-25T05:23:21;5.50;99.90
41882;DHT22;27562;47.524;12.404;2023-03-25T05:25:48;5.40;99.90
41882;DHT22;27562;47.524;12.404;2023-03-25T05:28:15;5.40;99.90
41882;DHT22;27562;47.524;12.404;2023-03-25T05:30:42;5.50;99.90
41882;DHT22;27562;47.524;12.404;2023-03-25T05:33:10;5.50;99.90
41882;DHT22;27562;47.524;12.404;2023-03-25T05:35:36;5.50;99.90
41882;DHT22;27562;47.524;12.404;2023-03-25T05:38:03;5.50;99.90
41882;DHT22;27562;47.524;12.404;2023-03-25T05:40:28;5.50;99.90
41882;DHT22;27562;47.524;12.404;2023-03-25T05:42:54;5.50;99.90
41882;DHT22;27562;47.524;12.404;2023-03-25T05:45:20;5.50;99.90
41882;DHT22;27562;47.524;12.404;2023-03-25T05:47:46;5.50;99.90
41882;DHT22;27562;47.524;12.404;2023-03-25T05:50:12;5.50;99.90
41882;DHT22;27562;47.524;12.404;2023-03-25T05:52:41;5.60;99.90
41882;DHT22;27562;47.524;12.404;2023-03-25T05:55:14;5.60;99.90
41882;DHT22;27562;47.524;12.404;2023-03-25T05:57:40;5.60;99.90
41882;DHT22;27562;47.524;12.404;2023-03-25T06:00:06;5.60;99.90
41882;DHT22;27562;47.524;12.404;2023-03-25T06:02:33;5.60;99.90
41882;DHT22;27562;47.524;12.404;2023-03-25T06:04:59;5.60;99.90
41882;DHT22;27562;47.524;12.404;2023-03-25T06:07:27;5.60;99.90
41882;DHT22;27562;47.524;12.404;2023-03-25T06:09:54;5.70;99.90
41882;DHT22;27562;47.524;12.404;2023-03-25T06:12:20;5.70;99.90
41882;DHT22;27562;47.524;12.404;2023-03-25T06:14:46;5.70;99.90
41882;DHT22;27562;47.524;12.404;2023-03-25T06:17:13;5.70;99.90
41882;DHT22;27562;47.524;12.404;2023-03-25T06:19:38;5.70;99.90
41882;DHT22;27562;47.524;12.404;2023-03-25T06:22:05;5.70;99.90
41882;DHT22;27562;47.524;12.404;2023-03-25T06:24:37;5.70;99.90
41882;DHT22;27562;47.524;12.404;2023-03-25T06:27:07;5.70;99.90
41882;DHT22;27562;47.524;12.404;2023-03-25T06:29:34;5.70;99.90
41882;DHT22;27562;47.524;12.404;2023-03-25T06:32:02;5.70;99.90
41882;DHT22;27562;47.524;12.404;2023-03-25T06:34:27;5.80;99.90
41882;DHT22;27562;47.524;12.404;2023-03-25T06:36:53;5.80;99.90
41882;DHT22;27562;47.524;12.404;2023-03-25T06:39:19;5.80;99.90
41882;DHT22;27562;47.524;12.404;2023-03-25T06:41:44;5.80;99.90
41882;DHT22;27562;47.524;12.404;2023-03-25T06:44:10;5.80;99.90
41882;DHT22;27562;47.524;12.404;2023-03-25T06:46:36;5.80;99.90
41882;DHT22;27562;47.524;12.404;2023-03-25T06:49:02;5.80;99.90
41882;DHT22;27562;47.524;12.404;2023-03-25T06:51:27;5.80;99.90
41882;DHT22;27562;47.524;12.404;2023-03-25T06:53:53;5.80;99.90
41882;DHT22;27562;47.524;12.404;2023-03-25T06:56:18;5.80;99.90
41882;DHT22;27562;47.524;12.404;2023-03-25T06:58:44;5.80;99.90
41882;DHT22;27562;47.524;12.404;2023-03-25T07:01:10;5.90;99.90
41882;DHT22;27562;47.524;12.404;2023-03-25T07:03:36;5.90;99.90
41882;DHT22;27562;47.524;12.404;2023-03-25T07:06:02;5.90;99.90
41882;DHT22;27562;47.524;12.404;2023-03-25T07:08:28;5.90;99.90
41882;DHT22;27562;47.524;12.404;2023-03-25T07:10:58;5.90;99.90
41882;DHT22;27562;47.524;12.404;2023-03-25T07:13:24;6.00;99.90
41882;DHT22;27562;47.524;12.404;2023-03-25T07:15:50;6.00;99.90
41882;DHT22;27562;47.524;12.404;2023-03-25T07:18:18;6.00;99.90
41882;DHT22;27562;47.524;12.404;2023-03-25T07:20:44;6.00;99.90
41882;DHT22;27562;47.524;12.404;2023-03-25T07:23:10;6.10;99.90
41882;DHT22;27562;47.524;12.404;2023-03-25T07:25:35;6.10;99.90
41882;DHT22;27562;47.524;12.404;2023-03-25T07:28:01;6.20;99.90
41882;DHT22;27562;47.524;12.404;2023-03-25T07:30:27;6.20;99.90
41882;DHT22;27562;47.524;12.404;2023-03-25T07:32:52;6.30;99.90
41882;DHT22;27562;47.524;12.404;2023-03-25T07:35:18;6.30;99.90
41882;DHT22;27562;47.524;12.404;2023-03-25T07:37:44;6.40;99.90
41882;DHT22;27562;47.524;12.404;2023-03-25T07:40:09;6.40;99.90
41882;DHT22;27562;47.524;12.404;2023-03-25T07:42:35;6.50;99.90
41882;DHT22;27562;47.524;12.404;2023-03-25T07:45:02;6.50;99.90
41882;DHT22;27562;47.524;12.404;2023-03-25T07:47:28;6.50;99.90
41882;DHT22;27562;47.524;12.404;2023-03-25T07:49:54;6.50;99.90
41882;DHT22;27562;47.524;12.404;2023-03-25T07:52:19;6.60;99.90
41882;DHT22;27562;47.524;12.404;2023-03-25T07:54:45;6.70;99.90
41882;DHT22;27562;47.524;12.404;2023-03-25T07:57:11;6.70;99.90
41882;DHT22;27562;47.524;12.404;2023-03-25T07:59:37;6.80;99.90
41882;DHT22;27562;47.524;12.404;2023-03-25T08:02:03;6.80;99.90
41882;DHT22;27562;47.524;12.404;2023-03-25T08:04:29;6.90;99.90
41882;DHT22;27562;47.524;12.404;2023-03-25T08:06:54;6.90;99.90
41882;DHT22;27562;47.524;12.404;2023-03-25T08:09:20;6.90;99.90
41882;DHT22;27562;47.524;12.404;2023-03-25T08:11:46;6.90;99.90
41882;DHT22;27562;47.524;12.404;2023-03-25T08:14:12;6.90;99.90
41882;DHT22;27562;47.524;12.404;2023-03-25T08:16:38;7.00;99.90
41882;DHT22;27562;47.524;12.404;2023-03-25T08:19:04;7.10;99.90
41882;DHT22;27562;47.524;12.404;2023-03-25T08:21:29;7.20;99.90
41882;DHT22;27562;47.524;12.404;2023-03-25T08:23:55;7.20;99.90
41882;DHT22;27562;47.524;12.404;2023-03-25T08:26:27;7.40;99.90
41882;DHT22;27562;47.524;12.404;2023-03-25T08:28:53;7.50;99.90
41882;DHT22;27562;47.524;12.404;2023-03-25T08:31:22;7.60;99.90
41882;DHT22;27562;47.524;12.404;2023-03-25T08:33:48;7.70;99.90
41882;DHT22;27562;47.524;12.404;2023-03-25T08:36:13;7.70;99.90
41882;DHT22;27562;47.524;12.404;2023-03-25T08:38:44;7.70;99.90
41882;DHT22;27562;47.524;12.404;2023-03-25T08:41:10;7.80;99.90
41882;DHT22;27562;47.524;12.404;2023-03-25T08:43:35;7.80;99.90
41882;DHT22;27562;47.524;12.404;2023-03-25T08:46:01;7.90;99.90
41882;DHT22;27562;47.524;12.404;2023-03-25T08:48:27;7.90;99.90
41882;DHT22;27562;47.524;12.404;2023-03-25T08:50:52;8.00;99.90
41882;DHT22;27562;47.524;12.404;2023-03-25T08:53:18;8.20;99.90
41882;DHT22;27562;47.524;12.404;2023-03-25T08:55:44;8.40;99.90
41882;DHT22;27562;47.524;12.404;2023-03-25T08:58:10;8.60;99.90
41882;DHT22;27562;47.524;12.404;2023-03-25T09:00:35;8.60;99.90
41882;DHT22;27562;47.524;12.404;2023-03-25T09:03:05;8.70;99.90
41882;DHT22;27562;47.524;12.404;2023-03-25T09:05:31;8.80;99.90
41882;DHT22;27562;47.524;12.404;2023-03-25T09:07:57;9.00;99.90
41882;DHT22;27562;47.524;12.404;2023-03-25T09:10:22;9.10;99.90
41882;DHT22;27562;47.524;12.404;2023-03-25T09:12:48;9.20;99.90
41882;DHT22;27562;47.524;12.404;2023-03-25T09:15:13;9.30;99.90
41882;DHT22;27562;47.524;12.404;2023-03-25T09:17:39;9.40;99.90
41882;DHT22;27562;47.524;12.404;2023-03-25T09:20:07;9.50;99.90
41882;DHT22;27562;47.524;12.404;2023-03-25T09:22:33;9.60;99.90
41882;DHT22;27562;47.524;12.404;2023-03-25T09:24:59;9.60;99.90
41882;DHT22;27562;47.524;12.404;2023-03-25T09:27:25;9.60;99.90
41882;DHT22;27562;47.524;12.404;2023-03-25T09:29:50;9.70;99.90
41882;DHT22;27562;47.524;12.404;2023-03-25T09:32:16;9.80;99.90
41882;DHT22;27562;47.524;12.404;2023-03-25T09:34:43;9.90;99.90
41882;DHT22;27562;47.524;12.404;2023-03-25T09:37:09;10.00;99.90
41882;DHT22;27562;47.524;12.404;2023-03-25T09:39:35;10.00;99.90
41882;DHT22;27562;47.524;12.404;2023-03-25T09:44:27;10.20;99.90
41882;DHT22;27562;47.524;12.404;2023-03-25T09:46:55;10.20;99.90
41882;DHT22;27562;47.524;12.404;2023-03-25T09:49:24;10.30;99.90
41882;DHT22;27562;47.524;12.404;2023-03-25T09:51:55;10.40;99.90
41882;DHT22;27562;47.524;12.404;2023-03-25T09:54:23;10.60;99.90
41882;DHT22;27562;47.524;12.404;2023-03-25T09:56:50;10.70;99.90
41882;DHT22;27562;47.524;12.404;2023-03-25T09:59:18;10.90;99.90
41882;DHT22;27562;47.524;12.404;2023-03-25T10:14:50;11.70;99.70
41882;DHT22;27562;47.524;12.404;2023-03-25T10:17:35;11.70;99.90
41882;DHT22;27562;47.524;12.404;2023-03-25T10:22:40;12.00;99.00
41882;DHT22;27562;47.524;12.404;2023-03-25T10:25:14;12.10;99.50
41882;DHT22;27562;47.524;12.404;2023-03-25T10:27:46;12.30;98.00
41882;DHT22;27562;47.524;12.404;2023-03-25T10:30:15;12.30;96.60
41882;DHT22;27562;47.524;12.404;2023-03-25T10:32:56;12.30;94.60
41882;DHT22;27562;47.524;12.404;2023-03-25T10:35:44;12.30;98.40
41882;DHT22;27562;47.524;12.404;2023-03-25T10:40:41;12.60;94.50
41882;DHT22;27562;47.524;12.404;2023-03-25T10:45:42;12.70;95.30
41882;DHT22;27562;47.524;12.404;2023-03-25T10:50:47;12.80;95.10
41882;DHT22;27562;47.524;12.404;2023-03-25T10:53:17;12.90;94.70
41882;DHT22;27562;47.524;12.404;2023-03-25T10:55:44;13.00;94.80
41882;DHT22;27562;47.524;12.404;2023-03-25T10:58:12;13.00;94.20
41882;DHT22;27562;47.524;12.404;2023-03-25T11:00:40;13.10;94.00
41882;DHT22;27562;47.524;12.404;2023-03-25T11:03:09;13.00;94.20
41882;DHT22;27562;47.524;12.404;2023-03-25T11:05:39;13.10;94.60
41882;DHT22;27562;47.524;12.404;2023-03-25T11:08:07;13.00;96.00
41882;DHT22;27562;47.524;12.404;2023-03-25T11:10:33;13.00;95.90
41882;DHT22;27562;47.524;12.404;2023-03-25T11:13:02;13.00;95.20
41882;DHT22;27562;47.524;12.404;2023-03-25T11:15:29;13.00;94.30
41882;DHT22;27562;47.524;12.404;2023-03-25T11:17:58;13.10;91.70
41882;DHT22;27562;47.524;12.404;2023-03-25T11:20:26;13.00;93.90
41882;DHT22;27562;47.524;12.404;2023-03-25T11:22:52;12.90;93.40
41882;DHT22;27562;47.524;12.404;2023-03-25T11:25:23;12.80;92.20
41882;DHT22;27562;47.524;12.404;2023-03-25T11:27:56;12.50;91.90
41882;DHT22;27562;47.524;12.404;2023-03-25T11:30:22;12.40;94.40
41882;DHT22;27562;47.524;12.404;2023-03-25T11:32:55;12.10;94.20
41882;DHT22;27562;47.524;12.404;2023-03-25T11:35:23;12.00;94.70
41882;DHT22;27562;47.524;12.404;2023-03-25T11:37:56;12.00;95.80
41882;DHT22;27562;47.524;12.404;2023-03-25T11:40:22;12.00;94.40
41882;DHT22;27562;47.524;12.404;2023-03-25T11:42:52;12.00;96.00
41882;DHT22;27562;47.524;12.404;2023-03-25T11:45:25;12.00;95.30
41882;DHT22;27562;47.524;12.404;2023-03-25T11:47:52;12.10;94.50
41882;DHT22;27562;47.524;12.404;2023-03-25T11:50:23;12.10;96.50
41882;DHT22;27562;47.524;12.404;2023-03-25T11:52:51;12.30;96.00
41882;DHT22;27562;47.524;12.404;2023-03-25T11:55:18;12.30;93.70
41882;DHT22;27562;47.524;12.404;2023-03-25T11:57:45;12.30;94.30
41882;DHT22;27562;47.524;12.404;2023-03-25T12:02:40;12.60;94.80
41882;DHT22;27562;47.524;12.404;2023-03-25T12:07:45;13.00;91.50
41882;DHT22;27562;47.524;12.404;2023-03-25T12:10:31;13.10;90.30
41882;DHT22;27562;47.524;12.404;2023-03-25T12:13:04;13.20;91.10
41882;DHT22;27562;47.524;12.404;2023-03-25T12:21:00;13.60;84.60
41882;DHT22;27562;47.524;12.404;2023-03-25T12:26:07;13.30;84.80
41882;DHT22;27562;47.524;12.404;2023-03-25T12:42:00;13.50;83.30
41882;DHT22;27562;47.524;12.404;2023-03-25T12:52:03;13.70;87.40
41882;DHT22;27562;47.524;12.404;2023-03-25T12:59:44;13.40;83.10
41882;DHT22;27562;47.524;12.404;2023-03-25T13:04:46;12.90;88.10
41882;DHT22;27562;47.524;12.404;2023-03-25T13:07:15;12.70;88.80
41882;DHT22;27562;47.524;12.404;2023-03-25T13:17:25;11.20;96.20
41882;DHT22;27562;47.524;12.404;2023-03-25T13:19:51;10.90;98.70
41882;DHT22;27562;47.524;12.404;2023-03-25T13:22:21;10.60;99.90
41882;DHT22;27562;47.524;12.404;2023-03-25T13:24:56;10.40;99.90
41882;DHT22;27562;47.524;12.404;2023-03-25T13:27:23;10.40;99.90
41882;DHT22;27562;47.524;12.404;2023-03-25T13:29:50;10.50;99.90
41882;DHT22;27562;47.524;12.404;2023-03-25T13:32:38;10.50;99.90
41882;DHT22;27562;47.524;12.404;2023-03-25T13:37:53;10.50;98.00
41882;DHT22;27562;47.524;12.404;2023-03-25T13:40:29;10.40;98.70
41882;DHT22;27562;47.524;12.404;2023-03-25T13:43:04;10.30;97.50
41882;DHT22;27562;47.524;12.404;2023-03-25T13:45:33;10.30;97.80
41882;DHT22;27562;47.524;12.404;2023-03-25T13:48:09;10.30;99.40
41882;DHT22;27562;47.524;12.404;2023-03-25T13:50:36;10.40;99.20
41882;DHT22;27562;47.524;12.404;2023-03-25T13:55:35;10.50;97.50
41882;DHT22;27562;47.524;12.404;2023-03-25T14:00:53;10.60;97.20
41882;DHT22;27562;47.524;12.404;2023-03-25T14:13:40;10.80;98.10
41882;DHT22;27562;47.524;12.404;2023-03-25T14:16:09;10.90;97.60
41882;DHT22;27562;47.524;12.404;2023-03-25T14:18:46;10.90;98.30
41882;DHT22;27562;47.524;12.404;2023-03-25T14:24:00;11.00;98.50
41882;DHT22;27562;47.524;12.404;2023-03-25T14:26:26;11.00;99.60
41882;DHT22;27562;47.524;12.404;2023-03-25T14:28:52;10.90;99.90
41882;DHT22;27562;47.524;12.404;2023-03-25T14:36:29;10.80;99.90
41882;DHT22;27562;47.524;12.404;2023-03-25T14:38:55;10.70;98.60
41882;DHT22;27562;47.524;12.404;2023-03-25T14:44:09;10.60;99.80
41882;DHT22;27562;47.524;12.404;2023-03-25T14:46:42;10.50;99.90
41882;DHT22;27562;47.524;12.404;2023-03-25T14:49:20;10.50;99.90
41882;DHT22;27562;47.524;12.404;2023-03-25T14:51:49;10.50;99.90
41882;DHT22;27562;47.524;12.404;2023-03-25T14:59:24;11.00;99.90
41882;DHT22;27562;47.524;12.404;2023-03-25T15:01:52;11.40;99.90
41882;DHT22;27562;47.524;12.404;2023-03-25T15:04:22;11.70;99.90
41882;DHT22;27562;47.524;12.404;2023-03-25T15:06:49;12.00;99.90
41882;DHT22;27562;47.524;12.404;2023-03-25T15:09:15;12.20;99.90
41882;DHT22;27562;47.524;12.404;2023-03-25T15:11:43;12.40;99.90
41882;DHT22;27562;47.524;12.404;2023-03-25T15:14:11;12.60;97.90
41882;DHT22;27562;47.524;12.404;2023-03-25T15:19:10;12.80;98.90
41882;DHT22;27562;47.524;12.404;2023-03-25T15:24:24;13.00;97.70
41882;DHT22;27562;47.524;12.404;2023-03-25T15:26:51;13.10;97.70
41882;DHT22;27562;47.524;12.404;2023-03-25T15:36:51;13.50;97.90
41882;DHT22;27562;47.524;12.404;2023-03-25T15:55:28;12.20;94.40
41882;DHT22;27562;47.524;12.404;2023-03-25T15:57:56;12.10;95.80
41882;DHT22;27562;47.524;12.404;2023-03-25T16:00:28;12.30;95.60
41882;DHT22;27562;47.524;12.404;2023-03-25T16:05:28;12.60;95.80
41882;DHT22;27562;47.524;12.404;2023-03-25T16:07:55;12.80;95.50
41882;DHT22;27562;47.524;12.404;2023-03-25T16:10:27;12.90;95.30
41882;DHT22;27562;47.524;12.404;2023-03-25T16:12:55;13.10;93.60
41882;DHT22;27562;47.524;12.404;2023-03-25T16:15:30;13.00;92.80
41882;DHT22;27562;47.524;12.404;2023-03-25T16:17:57;12.90;93.90
41882;DHT22;27562;47.524;12.404;2023-03-25T16:20:24;12.90;92.70
41882;DHT22;27562;47.524;12.404;2023-03-25T16:22:54;12.80;92.60
41882;DHT22;27562;47.524;12.404;2023-03-25T16:25:30;12.60;92.30
41882;DHT22;27562;47.524;12.404;2023-03-25T16:28:04;12.40;93.50
41882;DHT22;27562;47.524;12.404;2023-03-25T16:30:37;12.30;94.80
41882;DHT22;27562;47.524;12.404;2023-03-25T16:33:08;12.10;95.10
41882;DHT22;27562;47.524;12.404;2023-03-25T16:35:36;12.00;95.10
41882;DHT22;27562;47.524;12.404;2023-03-25T16:38:02;11.90;95.90
41882;DHT22;27562;47.524;12.404;2023-03-25T16:40:30;11.90;95.50
41882;DHT22;27562;47.524;12.404;2023-03-25T16:43:03;11.90;95.80
41882;DHT22;27562;47.524;12.404;2023-03-25T16:45:29;11.90;95.50
41882;DHT22;27562;47.524;12.404;2023-03-25T16:47:55;11.80;95.90
41882;DHT22;27562;47.524;12.404;2023-03-25T16:50:21;11.70;96.90
41882;DHT22;27562;47.524;12.404;2023-03-25T16:52:49;11.60;98.40
41882;DHT22;27562;47.524;12.404;2023-03-25T16:55:25;11.40;97.90
41882;DHT22;27562;47.524;12.404;2023-03-25T16:57:51;11.30;98.00
41882;DHT22;27562;47.524;12.404;2023-03-25T17:00:18;11.10;98.90
41882;DHT22;27562;47.524;12.404;2023-03-25T17:02:45;10.90;99.90
41882;DHT22;27562;47.524;12.404;2023-03-25T17:05:22;10.70;99.90
41882;DHT22;27562;47.524;12.404;2023-03-25T17:07:49;10.50;99.90
41882;DHT22;27562;47.524;12.404;2023-03-25T17:10:20;10.30;99.90
41882;DHT22;27562;47.524;12.404;2023-03-25T17:12:49;10.10;99.90
41882;DHT22;27562;47.524;12.404;2023-03-25T17:15:17;10.00;99.90
41882;DHT22;27562;47.524;12.404;2023-03-25T17:17:44;9.80;99.90
41882;DHT22;27562;47.524;12.404;2023-03-25T17:20:17;9.70;99.90
41882;DHT22;27562;47.524;12.404;2023-03-25T17:22:55;9.60;99.90
41882;DHT22;27562;47.524;12.404;2023-03-25T17:25:29;9.50;99.90
41882;DHT22;27562;47.524;12.404;2023-03-25T17:27:58;9.40;99.90
41882;DHT22;27562;47.524;12.404;2023-03-25T17:30:41;9.30;99.90
41882;DHT22;27562;47.524;12.404;2023-03-25T17:33:14;9.10;99.90
41882;DHT22;27562;47.524;12.404;2023-03-25T17:35:42;9.00;99.90
41882;DHT22;27562;47.524;12.404;2023-03-25T17:41:07;8.70;99.90
41882;DHT22;27562;47.524;12.404;2023-03-25T17:43:34;8.60;99.90
41882;DHT22;27562;47.524;12.404;2023-03-25T17:46:04;8.50;99.90
41882;DHT22;27562;47.524;12.404;2023-03-25T17:48:30;8.30;99.90
41882;DHT22;27562;47.524;12.404;2023-03-25T17:50:57;8.30;99.90
41882;DHT22;27562;47.524;12.404;2023-03-25T17:53:23;8.20;99.90
41882;DHT22;27562;47.524;12.404;2023-03-25T17:55:49;8.00;99.90
41882;DHT22;27562;47.524;12.404;2023-03-25T17:58:15;7.80;99.90
41882;DHT22;27562;47.524;12.404;2023-03-25T18:00:41;7.70;99.90
41882;DHT22;27562;47.524;12.404;2023-03-25T18:03:11;7.60;99.90
41882;DHT22;27562;47.524;12.404;2023-03-25T18:05:37;7.50;99.90
41882;DHT22;27562;47.524;12.404;2023-03-25T18:08:03;7.60;99.90
41882;DHT22;27562;47.524;12.404;2023-03-25T18:10:28;7.60;99.90
41882;DHT22;27562;47.524;12.404;2023-03-25T18:12:57;7.70;99.90
41882;DHT22;27562;47.524;12.404;2023-03-25T18:15:22;7.70;99.90
41882;DHT22;27562;47.524;12.404;2023-03-25T18:17:49;7.70;99.90
41882;DHT22;27562;47.524;12.404;2023-03-25T18:20:18;7.70;99.90
41882;DHT22;27562;47.524;12.404;2023-03-25T18:22:46;7.70;99.90
41882;DHT22;27562;47.524;12.404;2023-03-25T18:25:12;7.60;99.90